Time;durP1;ratioP1;P1;durP2;ratioP2;P2;SDS_P1;SDS_P2;PMS_P1;PMS_P2;Temp;Humidity;BMP_temperature;BMP_pressure;BME280_temperature;BME280_humidity;BME280_pressure;Samples;Min_cycle;Max_cycle;Signal;HPM_P1;HPM_P2
2022/04/28 00:00:44;;;;;;;4.78;3.85;;;;;;;14.47;64.63;101517.41;5053576;27;102552;-50
2022/04/28 00:03:12;;;;;;;4.67;4.03;;;;;;;14.47;64.38;101522.88;5017658;27;102108;-48
2022/04/28 00:05:41;;;;;;;4.68;3.80;;;;;;;14.46;64.64;101521.25;5022051;28;102093;-48
2022/04/28 00:08:09;;;;;;;5.18;4.03;;;;;;;14.47;64.36;101520.16;5017120;28;103978;-49
2022/04/28 00:10:37;;;;;;;5.03;3.72;;;;;;;14.47;64.42;101520.16;5013111;28;102398;-49
2022/04/28 00:13:07;;;;;;;4.28;3.85;;;;;;;14.48;64.45;101526.44;5014855;28;101970;-51
2022/04/28 00:15:35;;;;;;;5.22;3.90;;;;;;;14.47;64.43;101520.16;5034244;27;102083;-52
2022/04/28 00:18:02;;;;;;;6.47;3.80;;;;;;;14.47;64.58;101522.88;5029516;27;103904;-50
2022/04/28 00:20:29;;;;;;;6.05;4.38;;;;;;;14.47;64.60;101514.66;5012972;28;101878;-51
2022/04/28 00:22:59;;;;;;;4.22;3.58;;;;;;;14.47;64.64;101525.63;5013268;28;101984;-51
2022/04/28 00:25:26;;;;;;;4.57;3.75;;;;;;;14.48;64.43;101520.97;5013882;27;102214;-49
2022/04/28 00:27:54;;;;;;;4.78;3.85;;;;;;;14.47;64.69;101522.06;5027520;27;103787;-48
2022/04/28 00:30:22;;;;;;;4.30;3.90;;;;;;;14.48;64.54;101521.78;5032641;27;102040;-49
2022/04/28 00:32:51;;;;;;;5.28;3.95;;;;;;;14.47;64.67;101514.66;5032734;27;102681;-49
2022/04/28 00:35:20;;;;;;;;;;;;;;;14.47;64.56;101514.66;5021417;27;102200;-48
2022/04/28 00:37:46;;;;;;;4.40;3.50;;;;;;;14.47;64.83;101516.59;5028219;27;103754;-48
2022/04/28 00:40:14;;;;;;;6.95;3.58;;;;;;;14.48;64.96;101512.75;5029410;28;102204;-49
2022/04/28 00:42:41;;;;;;;4.05;3.65;;;;;;;14.47;64.58;101514.66;5012714;28;101875;-47
2022/04/28 00:45:08;;;;;;;4.97;3.50;;;;;;;14.48;65.00;101513.56;5012896;28;102430;-47
2022/04/28 00:50:38;;;;;;;5.50;4.22;;;;;;;14.47;64.51;101511.94;5013729;28;102255;-48
2022/04/28 00:53:09;;;;;;;4.10;3.65;;;;;;;14.48;64.51;101515.50;5012840;28;102526;-50
2022/04/28 00:55:36;;;;;;;4.82;3.53;;;;;;;14.48;64.77;101515.50;5027524;28;102086;-49
2022/04/28 00:58:04;;;;;;;4.47;3.72;;;;;;;14.47;64.87;101506.47;5030948;27;103891;-48
2022/04/28 01:00:33;;;;;;;3.85;3.45;;;;;;;14.48;64.69;101516.31;5032278;27;102190;-47
2022/04/28 01:03:01;;;;;;;4.25;3.63;;;;;;;14.47;64.86;101506.47;5032461;27;101884;-48
2022/04/28 01:05:29;;;;;;;5.15;3.40;;;;;;;14.47;64.86;101511.94;5033071;28;102372;-49
2022/04/28 01:08:09;;;;;;;4.50;3.58;;;;;;;14.46;64.73;101504.81;5023119;27;103860;-49
2022/04/28 01:10:40;;;;;;;3.50;3.20;;;;;;;14.47;64.84;101514.66;5012116;28;102407;-48
2022/04/28 01:13:22;;;;;;;3.97;3.60;;;;;;;14.48;64.88;101515.50;5011716;28;102239;-47
2022/04/28 01:15:50;;;;;;;5.43;4.60;;;;;;;14.47;64.78;101511.13;5014522;28;102520;-48
2022/04/28 01:18:20;;;;;;;4.70;4.10;;;;;;;14.46;64.85;101502.09;5011408;28;104106;-49
2022/04/28 01:20:47;;;;;;;4.43;3.97;;;;;;;14.47;64.79;101502.91;5011928;28;102394;-50
2022/04/28 01:23:18;;;;;;;4.55;4.13;;;;;;;14.47;64.80;101505.63;5015461;28;102511;-49
2022/04/28 01:26:04;;;;;;;4.82;3.65;;;;;;;14.47;64.59;101503.72;5011826;28;102864;-48
2022/04/28 01:28:32;;;;;;;6.25;3.88;;;;;;;14.47;64.49;101498.25;5009561;28;104052;-47
2022/04/28 01:31:00;;;;;;;4.47;3.88;;;;;;;14.46;64.37;101502.09;5023281;28;102031;-49
2022/04/28 01:33:27;;;;;;;4.40;3.72;;;;;;;14.46;64.74;101496.59;5031702;28;102353;-48
2022/04/28 01:35:53;;;;;;;4.53;4.05;;;;;;;14.45;64.77;101497.69;5032233;27;102751;-48
2022/04/28 01:38:21;;;;;;;5.35;4.00;;;;;;;14.46;64.85;101488.38;5026880;28;104148;-48
2022/04/28 01:40:50;;;;;;;5.68;4.00;;;;;;;14.46;64.52;101484.81;5031726;27;102470;-49
2022/04/28 01:43:21;;;;;;;4.15;3.75;;;;;;;14.45;64.24;101494.94;5031662;27;101895;-49
2022/04/28 01:45:49;;;;;;;4.35;3.95;;;;;;;14.45;64.67;101494.13;5031765;27;102511;-48
2022/04/28 01:48:16;;;;;;;5.05;4.07;;;;;;;14.45;64.63;101503.16;5028776;27;103869;-49
2022/04/28 01:54:57;;;;;;;4.40;4.00;;;;;;;14.44;64.38;101501.53;5031754;27;102023;-48
2022/04/28 01:56:34;;;;;;;4.68;3.88;;;;;;;14.45;64.33;101500.41;5029454;28;102422;-48
2022/04/28 01:59:03;;;;;;;4.50;4.10;;;;;;;14.45;64.69;101500.41;5028747;27;103882;-48
2022/04/28 02:01:29;;;;;;;4.25;3.85;;;;;;;14.45;64.78;101500.41;5019964;27;101878;-48
2022/04/28 02:03:55;;;;;;;4.72;4.20;;;;;;;14.45;64.69;101500.41;5023452;28;101861;-50
2022/04/28 02:06:25;;;;;;;;;;;;;;;14.45;64.34;101494.13;5021852;27;102808;-49
2022/04/28 02:08:54;;;;;;;4.50;4.10;;;;;;;14.45;64.28;101505.91;5011036;28;103499;-48
2022/04/28 02:11:20;;;;;;;4.20;3.75;;;;;;;14.45;64.69;101494.94;5023636;28;102334;-48
2022/04/28 02:13:49;;;;;;;4.50;4.00;;;;;;;14.45;64.71;101500.41;5030829;27;102191;-49
2022/04/28 02:16:15;;;;;;;4.18;3.58;;;;;;;14.45;64.53;101492.22;5031309;27;102075;-51
2022/04/28 02:18:42;;;;;;;4.47;3.50;;;;;;;14.44;64.75;101490.56;5025558;27;103826;-50
2022/04/28 02:21:09;;;;;;;4.85;3.95;;;;;;;14.45;64.35;101489.47;5011394;28;102253;-50
2022/04/28 02:23:40;;;;;;;3.92;3.58;;;;;;;14.45;65.04;101489.47;5018878;28;101809;-48
2022/04/28 02:26:08;;;;;;;5.40;3.88;;;;;;;14.44;64.45;101482.34;5031762;27;102022;-49
2022/04/28 02:28:38;;;;;;;4.05;3.63;;;;;;;14.43;64.53;101481.53;5029334;27;103937;-51
2022/04/28 02:31:05;;;;;;;3.78;3.47;;;;;;;14.43;64.32;101492.50;5011724;27;102278;-49
2022/04/28 02:33:32;;;;;;;6.20;3.42;;;;;;;14.43;64.34;101497.16;5010968;28;102270;-49
2022/04/28 02:35:59;;;;;;;3.85;3.50;;;;;;;14.43;64.47;101491.69;5012176;28;102383;-48
2022/04/28 02:38:26;;;;;;;4.93;3.53;;;;;;;14.43;64.31;101486.22;5024090;27;104282;-48
2022/04/28 02:40:52;;;;;;;4.53;3.35;;;;;;;14.42;64.26;101495.50;5011291;28;101900;-48
2022/04/28 02:43:20;;;;;;;4.07;3.50;;;;;;;14.42;64.37;101485.38;5010888;28;102208;-48
2022/04/28 02:45:49;;;;;;;5.13;4.00;;;;;;;14.42;64.21;101495.50;5011906;28;102405;-48
2022/04/28 02:48:16;;;;;;;4.15;3.75;;;;;;;14.42;64.19;101496.34;5014372;28;103639;-48
2022/04/28 02:50:43;;;;;;;4.53;4.00;;;;;;;14.43;64.30;101491.69;5012979;27;102122;-48
2022/04/28 02:53:09;;;;;;;5.00;4.50;;;;;;;14.42;64.36;101490.03;5014201;28;102050;-48
2022/04/28 02:55:39;;;;;;;3.90;3.60;;;;;;;14.41;63.97;101488.38;5033680;28;102752;-48
2022/04/28 02:58:06;;;;;;;3.97;3.47;;;;;;;14.41;64.22;101499.34;5032129;27;103960;-49
2022/04/28 03:00:33;;;;;;;3.97;3.58;;;;;;;14.40;64.15;101492.22;5034092;27;102522;-49
2022/04/28 03:03:00;;;;;;;4.32;3.83;;;;;;;14.40;64.14;101498.53;5033193;27;102613;-52
2022/04/28 03:05:26;;;;;;;4.50;4.10;;;;;;;14.40;63.98;101503.19;5022364;27;102527;-48
2022/04/28 03:10:58;;;;;;;5.90;3.75;;;;;;;14.39;64.18;101496.06;5031240;28;102317;-49
2022/04/28 03:13:35;;;;;;;4.35;3.78;;;;;;;14.39;63.85;101507.84;5031589;28;102048;-48
2022/04/28 03:16:03;;;;;;;5.70;4.18;;;;;;;14.39;63.78;101507.84;5031212;27;102157;-50
2022/04/28 03:18:30;;;;;;;5.22;4.43;;;;;;;14.39;64.11;101507.03;5022831;28;103891;-48
2022/04/28 03:20:57;;;;;;;6.22;4.40;;;;;;;14.39;63.86;101510.59;5032569;27;101947;-51
2022/04/28 03:23:24;;;;;;;4.28;3.83;;;;;;;14.39;63.59;101518.00;5026728;27;102330;-50
2022/04/28 03:25:51;;;;;;;4.25;3.47;;;;;;;14.39;64.15;101512.50;5023460;28;102354;-49
2022/04/28 03:28:21;;;;;;;4.80;3.72;;;;;;;14.39;63.81;101524.28;5030146;27;105325;-48
2022/04/28 03:30:50;;;;;;;4.85;3.72;;;;;;;14.39;63.64;101518.00;5033041;27;102077;-51
2022/04/28 03:33:18;;;;;;;5.22;3.90;;;;;;;14.38;63.65;101521.81;5019245;27;102324;-47
2022/04/28 03:35:44;;;;;;;4.97;3.63;;;;;;;14.39;63.68;101534.41;5017560;28;102116;-48
2022/04/28 03:38:13;;;;;;;4.28;3.72;;;;;;;14.38;63.72;101538.22;5017302;27;103753;-48
2022/04/28 03:40:41;;;;;;;3.80;3.30;;;;;;;14.38;63.81;101535.50;5030858;28;101946;-49
2022/04/28 03:43:09;;;;;;;4.07;3.55;;;;;;;14.38;64.04;101536.31;5034105;27;101951;-49
2022/04/28 03:45:36;;;;;;;5.88;4.00;;;;;;;14.38;64.00;101547.25;5014397;27;102506;-48
2022/04/28 03:48:03;;;;;;;4.65;3.72;;;;;;;14.38;63.93;101539.03;5014092;28;104282;-48
2022/04/28 03:50:34;;;;;;;4.40;4.00;;;;;;;14.39;63.92;101548.09;5031958;28;102453;-50
2022/04/28 03:53:00;;;;;;;6.43;3.88;;;;;;;14.39;63.94;101550.84;5033037;27;102346;-48
2022/04/28 03:55:27;;;;;;;4.57;3.88;;;;;;;14.39;63.83;101562.63;5033891;27;101999;-48
2022/04/28 03:57:54;;;;;;;4.50;3.28;;;;;;;14.39;63.86;101553.59;5015157;27;104080;-51
2022/04/28 04:00:22;;;;;;;3.88;3.28;;;;;;;14.40;63.89;101560.69;5013272;28;102323;-49
2022/04/28 04:02:52;;;;;;;4.75;3.58;;;;;;;14.39;63.81;101556.31;5014772;28;102361;-49
2022/04/28 04:05:18;;;;;;;5.57;3.63;;;;;;;14.40;63.85;101558.78;5024930;28;102228;-51
2022/04/28 04:07:47;;;;;;;4.43;4.00;;;;;;;14.39;64.25;101559.06;5013571;27;104225;-48
2022/04/28 04:10:13;;;;;;;4.72;3.45;;;;;;;14.41;63.97;101562.31;5013234;28;101770;-48
2022/04/28 04:12:41;;;;;;;4.40;4.00;;;;;;;14.38;64.11;101558.22;5025622;28;101988;-49
2022/04/28 04:15:08;;;;;;;5.50;3.92;;;;;;;14.39;64.02;101556.31;5024940;28;102199;-50
2022/04/28 04:17:41;;;;;;;4.63;3.78;;;;;;;14.39;63.72;101561.81;5020255;28;104083;-48
2022/04/28 04:20:09;;;;;;;3.70;3.20;;;;;;;14.39;63.97;101557.13;5012967;28;102069;-48
2022/04/28 04:22:37;;;;;;;3.72;3.38;;;;;;;14.39;63.97;101553.59;5013107;28;101881;-49
2022/04/28 04:25:09;;;;;;;6.10;3.42;;;;;;;14.39;64.13;101553.59;5013755;28;102485;-49
2022/04/28 04:27:37;;;;;;;4.07;3.28;;;;;;;14.41;64.67;101567.81;5016523;28;103921;-50
2022/04/28 04:32:17;;;;;;;4.78;3.50;;;;;;;14.40;63.87;101564.25;5012576;28;101991;-48
2022/04/28 04:32:53;;;;;;;5.32;3.60;;;;;;;14.39;63.99;101559.06;5017825;28;102140;-49
2022/04/28 04:35:21;;;;;;;5.47;3.55;;;;;;;14.41;63.91;101559.59;5031920;27;103521;-48
2022/04/28 04:37:48;;;;;;;4.45;3.22;;;;;;;14.39;64.14;101562.63;5030729;27;104439;-49
2022/04/28 04:40:19;;;;;;;5.68;3.20;;;;;;;14.39;64.27;101561.81;5032200;27;101955;-49
2022/04/28 04:42:46;;;;;;;;;;;;;;;14.40;64.23;101564.25;5013798;27;102063;-51
2022/04/28 04:45:12;;;;;;;3.92;3.53;;;;;;;14.39;64.44;101568.09;5013059;28;102596;-48
2022/04/28 04:47:39;;;;;;;4.78;3.63;;;;;;;14.39;64.86;101568.09;5011918;28;103868;-48
2022/04/28 04:50:08;;;;;;;4.72;3.40;;;;;;;14.40;64.48;101574.38;5013271;28;102603;-49
2022/04/28 04:52:35;;;;;;;4.65;3.38;;;;;;;14.40;64.32;101574.38;5012249;28;102591;-49
2022/04/28 04:55:06;;;;;;;5.45;3.83;;;;;;;14.40;64.05;101579.88;5013069;28;102427;-48
2022/04/28 04:57:34;;;;;;;6.00;3.53;;;;;;;14.39;64.35;101592.75;5012168;28;103760;-48
2022/04/28 05:00:02;;;;;;;4.82;3.90;;;;;;;14.40;64.22;101597.13;5028096;28;102207;-48
2022/04/28 05:02:29;;;;;;;4.67;3.60;;;;;;;14.39;64.23;101592.75;5028316;27;102284;-48
2022/04/28 05:04:55;;;;;;;4.90;3.00;;;;;;;14.41;64.28;101600.66;5014895;28;102114;-48
2022/04/28 05:07:22;;;;;;;4.80;3.05;;;;;;;14.40;64.41;101599.84;5028172;27;104052;-52
2022/04/28 05:09:48;;;;;;;4.15;3.20;;;;;;;14.39;64.44;101597.41;5016432;28;102413;-49
2022/04/28 05:12:15;;;;;;;3.67;2.90;;;;;;;14.41;64.20;101606.16;5012023;28;102478;-49
2022/04/28 05:14:42;;;;;;;4.20;3.72;;;;;;;14.41;64.39;101603.41;5021688;28;102274;-50
2022/04/28 05:17:10;;;;;;;6.13;3.30;;;;;;;14.41;64.62;101606.16;5020407;27;103912;-48
2022/04/28 05:19:37;;;;;;;5.32;3.38;;;;;;;14.41;64.42;101625.31;5012339;28;101828;-49
2022/04/28 05:22:05;;;;;;;5.32;3.53;;;;;;;14.41;64.53;101617.91;5029931;28;101971;-49
2022/04/28 05:24:31;;;;;;;4.55;3.78;;;;;;;14.42;64.38;101616.84;5014677;27;102762;-49
2022/04/28 05:26:59;;;;;;;4.90;3.47;;;;;;;14.41;64.34;101617.91;5015516;28;104011;-49
2022/04/28 05:29:35;;;;;;;4.28;3.35;;;;;;;14.41;64.22;101615.19;5028967;27;102939;-48
2022/04/28 05:32:05;;;;;;;5.85;3.70;;;;;;;14.43;64.56;101629.44;5013129;27;102419;-50
2022/04/28 05:34:32;;;;;;;5.22;3.60;;;;;;;14.44;64.07;101627.50;5019075;28;102541;-49
2022/04/28 05:36:59;;;;;;;3.25;2.95;;;;;;;14.47;64.35;101635.19;5019386;27;103935;-48
2022/04/28 05:39:30;;;;;;;3.42;3.13;;;;;;;14.48;64.15;101620.38;5011825;28;103401;-51
2022/04/28 05:41:57;;;;;;;4.15;3.35;;;;;;;14.49;64.26;101624.75;5018665;28;102601;-51
2022/04/28 05:47:10;;;;;;;5.35;3.55;;;;;;;14.56;64.02;101625.31;5034811;27;103827;-48
2022/04/28 05:49:38;;;;;;;4.87;3.53;;;;;;;14.58;64.03;101622.31;5031982;27;102082;-49
2022/04/28 05:52:05;;;;;;;7.05;3.50;;;;;;;14.58;64.10;101625.88;5015149;27;104135;-48
2022/04/28 05:54:32;;;;;;;5.60;3.60;;;;;;;14.59;64.13;101630.25;5017555;27;102692;-50
2022/04/28 05:56:58;;;;;;;6.68;3.72;;;;;;;14.61;64.26;101630.00;5019975;27;103842;-49
2022/04/28 05:59:26;;;;;;;5.80;3.95;;;;;;;14.60;64.15;101634.63;5023431;27;105122;-48
2022/04/28 06:01:52;;;;;;;3.80;3.35;;;;;;;14.60;64.04;101634.63;5032903;27;102047;-48
2022/04/28 06:04:20;;;;;;;5.05;4.05;;;;;;;14.59;63.96;101630.25;5025056;27;102078;-48
2022/04/28 06:06:47;;;;;;;3.78;3.33;;;;;;;14.61;64.16;101630.00;5025616;27;103887;-48
2022/04/28 06:09:15;;;;;;;6.00;3.30;;;;;;;14.60;63.94;101633.81;5028264;27;102326;-47
2022/04/28 06:11:43;;;;;;;3.30;3.00;;;;;;;14.61;64.16;101641.78;5022878;27;102080;-47
2022/04/28 06:14:11;;;;;;;5.05;3.53;;;;;;;14.61;63.75;101638.22;5032795;27;102169;-48
2022/04/28 06:16:38;;;;;;;3.88;3.20;;;;;;;14.61;63.80;101636.28;5023462;27;103848;-48
2022/04/28 06:19:19;;;;;;;4.63;3.00;;;;;;;14.62;63.73;101643.41;5025523;28;101982;-47
2022/04/28 06:21:48;;;;;;;3.42;3.05;;;;;;;14.63;64.02;101634.09;5028478;27;102444;-48
2022/04/28 06:24:15;;;;;;;4.78;3.10;;;;;;;14.63;63.83;101639.56;5017811;27;102388;-48
2022/04/28 06:26:41;;;;;;;5.13;3.20;;;;;;;14.63;63.79;101638.75;5024786;28;103327;-49
2022/04/28 06:29:08;;;;;;;4.85;3.40;;;;;;;14.63;63.66;101639.56;5035079;27;102213;-48
2022/04/28 06:31:34;;;;;;;3.00;2.70;;;;;;;14.64;63.68;101643.97;5034462;27;102475;-47
2022/04/28 06:34:04;;;;;;;5.90;3.47;;;;;;;14.63;63.60;101650.53;5035838;27;102192;-51
2022/04/28 06:36:31;;;;;;;4.70;3.40;;;;;;;14.63;63.43;101647.78;5033139;27;103922;-48
2022/04/28 06:38:58;;;;;;;2.72;2.53;;;;;;;14.65;63.12;101648.34;5014725;28;101853;-48
2022/04/28 06:41:25;;;;;;;3.17;2.70;;;;;;;14.65;63.29;101658.47;5014013;28;101945;-49
2022/04/28 06:43:51;;;;;;;3.35;3.03;;;;;;;14.66;63.37;101654.63;5023934;28;102439;-47
2022/04/28 06:46:18;;;;;;;3.22;2.90;;;;;;;14.64;63.02;101660.41;5019686;27;104109;-49
2022/04/28 06:48:47;;;;;;;4.10;3.20;;;;;;;14.65;63.25;101662.03;5014778;28;102208;-48
2022/04/28 06:51:16;;;;;;;3.90;3.00;;;;;;;14.64;63.22;101665.88;5014192;28;101905;-49
2022/04/28 06:53:43;;;;;;;3.88;3.03;;;;;;;14.65;63.06;101653.00;5024962;27;102189;-50
2022/04/28 06:56:11;;;;;;;4.22;3.05;;;;;;;14.63;63.27;101661.47;5029231;27;103881;-48
2022/04/28 06:58:38;;;;;;;3.45;3.15;;;;;;;14.64;63.17;101659.56;5034837;27;101917;-49
2022/04/28 07:01:05;;;;;;;4.82;3.33;;;;;;;14.63;63.04;101656.00;5037840;27;101933;-48
2022/04/28 07:03:33;;;;;;;4.38;3.60;;;;;;;14.64;62.93;101662.28;5029173;27;102068;-50
2022/04/28 07:06:00;;;;;;;4.45;3.13;;;;;;;14.64;63.13;101656.81;5013910;27;104395;-49
2022/04/28 07:08:30;;;;;;;4.68;3.28;;;;;;;14.64;63.20;101668.63;5030415;27;101998;-48
2022/04/28 07:10:58;;;;;;;5.25;2.92;;;;;;;14.64;63.25;101663.13;5026350;27;102587;-48
2022/04/28 07:13:26;;;;;;;6.35;3.58;;;;;;;14.65;62.94;101663.97;5028150;28;102081;-49
2022/04/28 07:16:01;;;;;;;3.25;2.90;;;;;;;14.65;62.82;101670.25;5033035;27;104050;-50
2022/04/28 07:18:29;;;;;;;4.72;3.00;;;;;;;14.65;63.08;101667.50;5029200;27;102270;-49
2022/04/28 07:20:59;;;;;;;3.90;3.33;;;;;;;14.64;63.12;101679.59;5033234;28;102037;-48
2022/04/28 07:23:31;;;;;;;4.53;3.47;;;;;;;14.64;62.98;101674.09;5034828;27;101980;-48
2022/04/28 07:25:58;;;;;;;5.25;3.63;;;;;;;14.64;62.98;101682.31;5032745;27;104013;-48
2022/04/28 07:28:26;;;;;;;3.70;3.33;;;;;;;14.64;63.08;101679.59;5033812;27;102213;-49
2022/04/28 07:30:56;;;;;;;4.47;3.90;;;;;;;14.64;63.13;101679.59;5032911;27;102300;-49
2022/04/28 07:33:25;;;;;;;5.35;3.85;;;;;;;14.65;62.76;101672.19;5046667;27;102287;-49
2022/04/28 07:35:52;;;;;;;4.30;3.03;;;;;;;14.65;62.70;101683.13;5033464;27;104065;-48
2022/04/28 07:38:19;;;;;;;3.67;2.97;;;;;;;14.64;62.93;101678.72;5033879;27;101989;-51
2022/04/28 07:40:46;;;;;;;4.03;3.00;;;;;;;14.64;62.74;101679.59;5033111;27;102358;-50
2022/04/28 07:43:13;;;;;;;3.45;3.10;;;;;;;14.65;62.90;101686.69;5014981;27;102146;-48
2022/04/28 07:45:40;;;;;;;3.70;2.90;;;;;;;14.66;62.87;101688.31;5012166;27;104026;-48
2022/04/28 07:48:09;;;;;;;3.90;2.90;;;;;;;14.68;63.01;101684.47;5023338;27;102534;-48
2022/04/28 07:50:35;;;;;;;3.45;2.78;;;;;;;14.68;63.05;101689.97;5014890;27;102903;-49
2022/04/28 07:53:02;;;;;;;3.80;2.88;;;;;;;14.69;63.18;101686.16;5029136;27;103708;-49
2022/04/28 07:55:30;;;;;;;3.67;3.20;;;;;;;14.70;63.06;101694.06;5018087;27;103710;-49
2022/04/28 07:57:56;;;;;;;4.53;3.50;;;;;;;14.72;62.97;101696.56;5029915;27;102667;-48
2022/04/28 08:00:23;;;;;;;4.05;2.78;;;;;;;14.70;63.06;101694.06;5047052;27;102298;-48
2022/04/28 08:02:52;;;;;;;3.00;2.70;;;;;;;14.70;63.00;101693.25;5022798;27;102580;-49
2022/04/28 08:05:19;;;;;;;3.28;2.83;;;;;;;14.71;62.85;101694.91;5021481;28;103830;-47
2022/04/28 08:07:49;;;;;;;3.97;3.00;;;;;;;14.70;62.59;101705.03;5026066;27;102618;-50
2022/04/28 08:10:19;;;;;;;4.05;3.28;;;;;;;14.71;62.43;101700.38;5021454;27;102234;-48
2022/04/28 08:12:46;;;;;;;4.03;3.25;;;;;;;14.71;63.06;101705.84;5022799;27;102250;-49
2022/04/28 08:15:16;;;;;;;3.80;3.13;;;;;;;14.71;62.76;101708.59;5022136;27;104334;-49
2022/04/28 08:17:48;;;;;;;3.17;2.70;;;;;;;14.72;63.02;101708.34;5031880;27;102165;-51
2022/04/28 08:20:18;;;;;;;3.03;2.72;;;;;;;14.71;63.02;101705.84;5038711;27;102152;-49
2022/04/28 08:22:45;;;;;;;2.70;2.50;;;;;;;14.71;62.50;101705.84;5026147;27;102512;-50
2022/04/28 08:25:12;;;;;;;2.90;2.70;;;;;;;14.71;62.59;101700.38;5023668;27;103831;-48
2022/04/28 08:27:39;;;;;;;3.38;3.08;;;;;;;14.72;63.09;101696.56;5026885;27;102387;-50
2022/04/28 08:30:06;;;;;;;4.38;3.17;;;;;;;14.73;62.63;101709.16;5023930;27;102152;-49
2022/04/28 08:32:33;;;;;;;4.15;3.17;;;;;;;14.71;62.64;101705.84;5023158;27;102437;-48
2022/04/28 08:35:00;;;;;;;4.30;3.38;;;;;;;14.71;62.80;101705.84;5026000;27;103830;-50
2022/04/28 08:37:29;;;;;;;3.88;3.13;;;;;;;14.70;62.70;101701.47;5027944;27;103505;-48
2022/04/28 08:39:56;;;;;;;3.35;3.05;;;;;;;14.72;62.58;101697.38;5032261;27;102083;-51
2022/04/28 08:42:26;;;;;;;5.65;3.10;;;;;;;14.71;62.58;101686.69;5028676;27;101971;-50
2022/04/28 08:44:55;;;;;;;3.47;3.08;;;;;;;14.73;62.52;101698.19;5012085;27;103929;-49
2022/04/28 08:47:21;;;;;;;;;;;;;;;14.73;62.57;101692.72;5018031;27;103480;-48
2022/04/28 08:50:08;;;;;;;6.65;3.10;;;;;;;14.72;62.61;101705.59;5017197;27;102417;-49
2022/04/28 08:52:37;;;;;;;2.92;2.50;;;;;;;14.73;62.50;101695.47;5030456;27;102857;-49
2022/04/28 08:55:06;;;;;;;3.13;2.88;;;;;;;14.73;62.87;101692.72;5023843;27;104624;-49
2022/04/28 08:57:37;;;;;;;4.97;2.95;;;;;;;14.73;62.97;101701.75;5030598;27;101945;-49
2022/04/28 09:00:05;;;;;;;3.03;2.72;;;;;;;14.74;62.41;101710.78;5024300;27;102319;-49
2022/04/28 09:02:35;;;;;;;3.17;2.90;;;;;;;14.73;62.98;101709.97;5031478;27;102225;-52
2022/04/28 09:05:04;;;;;;;3.50;3.03;;;;;;;14.74;62.62;101710.78;5027082;27;104128;-49
2022/04/28 09:07:33;;;;;;;2.67;2.38;;;;;;;14.73;62.97;101709.97;5028826;27;102446;-49
2022/04/28 09:10:26;;;;;;;2.88;2.58;;;;;;;14.74;62.61;101711.59;5026815;27;102032;-52
2022/04/28 09:14:08;;;;;;;4.15;2.92;;;;;;;14.73;62.88;101709.97;5033418;27;102174;-49
2022/04/28 09:15:52;;;;;;;3.67;2.85;;;;;;;14.75;62.57;101706.94;5015476;27;103946;-48
2022/04/28 09:18:22;;;;;;;3.20;2.90;;;;;;;14.74;62.94;101716.28;5025105;27;101969;-49
2022/04/28 09:20:50;;;;;;;4.40;2.70;;;;;;;14.74;62.83;101708.88;5011203;28;102409;-48
2022/04/28 09:23:21;;;;;;;3.90;2.97;;;;;;;14.74;62.82;101710.78;5017994;28;102018;-49
2022/04/28 09:25:52;;;;;;;3.57;2.93;;;;;;;14.74;62.82;101705.31;5021162;27;103877;-48
2022/04/28 09:28:19;;;;;;;;;;;;;;;14.75;63.00;101690.50;5018856;28;102277;-53
2022/04/28 09:30:49;;;;;;;3.15;2.58;;;;;;;14.76;62.72;101692.16;5010730;28;102261;-48
2022/04/28 09:33:20;;;;;;;2.95;2.65;;;;;;;14.76;62.46;101693.00;5012499;28;102114;-49
2022/04/28 09:35:50;;;;;;;2.47;2.28;;;;;;;14.79;63.02;101697.09;5019971;27;104064;-48
2022/04/28 09:38:20;;;;;;;2.65;2.45;;;;;;;14.80;63.07;101687.78;5005490;28;102542;-49
2022/04/28 09:43:41;;;;;;;;;;;;;;;14.82;63.03;101686.41;4995919;28;102672;-48
2022/04/28 09:46:11;;;;;;;3.42;3.05;;;;;;;14.83;62.82;101679.00;4994561;28;103723;-48
2022/04/28 09:48:43;;;;;;;5.10;3.42;;;;;;;14.85;63.13;101679.53;5005385;28;101850;-49
2022/04/28 09:51:11;;;;;;;3.60;2.67;;;;;;;14.85;63.12;101677.63;4992287;28;102210;-48
2022/04/28 09:53:41;;;;;;;3.22;2.83;;;;;;;14.87;62.98;101682.84;4990144;28;102434;-48
2022/04/28 09:56:14;;;;;;;4.40;2.92;;;;;;;14.86;62.81;101692.97;4996280;28;104156;-47
2022/04/28 09:58:43;;;;;;;2.60;2.33;;;;;;;14.86;62.53;101681.19;4990967;28;101964;-48
2022/04/28 10:01:10;;;;;;;2.63;2.42;;;;;;;14.86;62.58;101686.69;4990577;28;102907;-48
2022/04/28 10:03:40;;;;;;;3.20;2.70;;;;;;;14.86;62.81;101681.19;4991539;28;102417;-48
2022/04/28 10:06:10;;;;;;;2.88;2.47;;;;;;;14.86;62.79;101686.69;4997351;28;104139;-52
2022/04/28 10:08:38;;;;;;;3.38;2.55;;;;;;;14.85;62.58;101685.00;5004813;28;102029;-48
2022/04/28 10:11:08;;;;;;;4.50;2.50;;;;;;;14.87;62.53;101693.78;5006879;28;102106;-49
2022/04/28 10:13:41;;;;;;;2.33;2.13;;;;;;;14.85;62.65;101690.50;5000865;28;102713;-47
2022/04/28 10:16:11;;;;;;;2.58;2.38;;;;;;;14.87;62.28;101696.53;4997790;28;103991;-49
2022/04/28 10:18:53;;;;;;;3.35;2.15;;;;;;;14.86;62.63;101692.16;5009551;28;101986;-49
2022/04/28 10:21:27;;;;;;;3.58;2.50;;;;;;;14.85;62.71;101683.09;5009688;28;102586;-52
2022/04/28 10:32:56;;;;;;;2.50;2.30;;;;;;;14.86;62.67;101682.00;4999079;28;104434;-47
2022/04/28 10:35:44;;;;;;;2.60;2.40;;;;;;;14.87;62.20;101693.78;4997544;28;101965;-48
2022/04/28 10:38:14;;;;;;;4.15;2.65;;;;;;;14.87;62.31;101686.38;5002430;28;103906;-49
2022/04/28 10:40:43;;;;;;;2.50;2.30;;;;;;;14.88;62.43;101687.22;4994051;28;102342;-50
2022/04/28 10:43:25;;;;;;;2.60;2.40;;;;;;;14.89;62.62;101691.59;5002916;28;102147;-49
2022/04/28 10:45:54;;;;;;;2.88;2.20;;;;;;;14.88;62.20;101684.47;5002779;28;102622;-49
2022/04/28 10:48:28;;;;;;;2.58;2.38;;;;;;;14.89;62.44;101691.59;4990194;28;103556;-48
2022/04/28 10:51:12;;;;;;;3.08;2.50;;;;;;;14.90;62.54;101679.53;5005885;28;101912;-49
2022/04/28 10:54:09;;;;;;;3.13;2.30;;;;;;;14.89;62.71;101686.09;4993083;28;101929;-48
2022/04/28 10:56:54;;;;;;;3.13;2.83;;;;;;;14.91;62.20;101678.44;4998357;28;103682;-48
2022/04/28 10:59:39;;;;;;;3.30;2.30;;;;;;;14.91;62.32;101683.91;5004664;28;103893;-48
2022/04/28 11:02:48;;;;;;;2.85;2.55;;;;;;;14.91;62.27;101678.44;4995395;28;104245;-48
2022/04/28 11:05:38;;;;;;;2.95;2.30;;;;;;;14.92;62.53;101676.50;4989724;28;102517;-48
2022/04/28 11:08:08;;;;;;;2.80;2.50;;;;;;;14.91;62.48;101672.97;5006363;28;102202;-48
2022/04/28 11:11:01;;;;;;;3.03;2.50;;;;;;;14.92;62.36;101662.81;5009102;28;103958;-47
2022/04/28 11:13:31;;;;;;;2.80;2.30;;;;;;;14.92;62.44;101674.59;5012570;28;102545;-48
2022/04/28 11:16:00;;;;;;;3.15;2.20;;;;;;;14.92;62.16;101658.16;5008972;28;102825;-49
2022/04/28 11:18:28;;;;;;;2.28;2.08;;;;;;;14.92;62.12;101660.06;4994489;28;102213;-48
2022/04/28 11:21:01;;;;;;;3.65;2.30;;;;;;;14.91;62.06;101653.78;4999370;28;104048;-48
2022/04/28 11:23:34;;;;;;;3.45;2.50;;;;;;;14.92;62.45;101657.31;4993086;28;102538;-55
2022/04/28 11:26:02;;;;;;;2.47;2.28;;;;;;;14.91;62.20;101659.25;5006993;28;102542;-48
2022/04/28 11:28:31;;;;;;;2.65;2.45;;;;;;;14.91;61.94;101659.25;4994421;28;102412;-48
2022/04/28 11:30:59;;;;;;;2.50;2.30;;;;;;;14.91;62.38;101656.50;4992697;28;104169;-49
2022/04/28 11:33:26;;;;;;;;;;;;;;;14.90;61.95;101654.88;4994455;28;102545;-49
2022/04/28 11:35:54;;;;;;;3.70;2.15;;;;;;;14.90;61.90;101649.41;5000287;28;103728;-49
2022/04/28 11:38:27;;;;;;;2.20;2.00;;;;;;;14.90;61.70;101654.88;5007396;28;102030;-48
2022/04/28 11:41:00;;;;;;;2.28;2.08;;;;;;;14.90;61.91;101649.41;5001626;28;103896;-49
2022/04/28 11:43:31;;;;;;;2.33;2.10;;;;;;;14.89;61.92;101642.25;5013109;28;102521;-48
2022/04/28 11:46:02;;;;;;;2.47;2.28;;;;;;;14.90;62.08;101643.91;5004618;28;102334;-48
2022/04/28 11:48:30;;;;;;;2.58;1.95;;;;;;;14.89;61.62;101637.63;4994171;28;102262;-48
2022/04/28 11:51:03;;;;;;;3.63;2.22;;;;;;;14.89;61.86;101634.03;4993149;28;104339;-48
2022/04/28 11:53:42;;;;;;;2.28;2.00;;;;;;;14.89;62.02;101636.78;4993143;28;102015;-50